createdAt,value
2023-03-26T00:02:15.563Z,95737.08
2023-03-26T00:05:03.138Z,95734.20
2023-03-26T00:07:50.049Z,95728.48
2023-03-26T00:10:39.317Z,95727.18
2023-03-26T00:13:26.442Z,95727.94
2023-03-26T00:16:17.268Z,95728.35
2023-03-26T00:19:04.377Z,95730.00
2023-03-26T00:21:52.562Z,95731.98
2023-03-26T00:24:40.849Z,95730.70
2023-03-26T00:27:27.865Z,95729.20
2023-03-26T00:30:15.601Z,95733.30
2023-03-26T00:33:03.419Z,95733.87
2023-03-26T00:35:56.938Z,95733.59
2023-03-26T00:38:45.276Z,95734.25
2023-03-26T00:41:32.884Z,95729.61
2023-03-26T00:44:20.929Z,95728.33
2023-03-26T00:47:08.835Z,95723.36
2023-03-26T00:49:56.394Z,95719.11
2023-03-26T00:52:46.323Z,95722.00
2023-03-26T00:55:34.620Z,95722.39
2023-03-26T00:58:22.516Z,95726.48
2023-03-26T01:01:13.988Z,95727.27
2023-03-26T01:04:27.499Z,95725.64
2023-03-26T01:07:21.904Z,95725.25
2023-03-26T01:10:09.538Z,95725.35
2023-03-26T01:12:56.756Z,95721.77
2023-03-26T01:15:50.023Z,95722.02
2023-03-26T01:18:41.161Z,95719.48
2023-03-26T01:21:30.571Z,95718.48
2023-03-26T01:24:18.030Z,95715.77
2023-03-26T01:27:33.813Z,95708.34
2023-03-26T01:31:04.343Z,95711.71
2023-03-26T01:34:18.814Z,95716.54
2023-03-26T01:37:15.455Z,95715.95
2023-03-26T01:40:16.410Z,95717.29
2023-03-26T01:43:13.791Z,95721.19
2023-03-26T01:46:04.349Z,95728.63
2023-03-26T01:48:51.771Z,95737.23
2023-03-26T01:51:41.446Z,95742.86
2023-03-26T01:54:31.871Z,95745.41
2023-03-26T01:57:27.776Z,95750.42
2023-03-26T02:00:32.430Z,95750.70
2023-03-26T02:03:31.649Z,95753.22
2023-03-26T02:06:38.592Z,95755.94
2023-03-26T02:09:31.062Z,95754.83
2023-03-26T02:12:22.603Z,95754.22
2023-03-26T02:15:09.983Z,95756.41
2023-03-26T02:17:56.741Z,95753.52
2023-03-26T02:20:43.698Z,95753.94
2023-03-26T02:23:30.475Z,95753.17
2023-03-26T02:26:19.922Z,95755.88
2023-03-26T02:29:21.442Z,95749.69
2023-03-26T02:32:13.352Z,95748.09
2023-03-26T02:35:00.280Z,95748.67
2023-03-26T02:37:51.136Z,95755.08
2023-03-26T02:40:40.355Z,95759.70
2023-03-26T02:43:28.230Z,95765.38
2023-03-26T02:46:15.991Z,95770.33
2023-03-26T02:49:14.311Z,95769.55
2023-03-26T02:52:06.742Z,95773.09
2023-03-26T02:54:55.476Z,95776.30
2023-03-26T02:57:44.162Z,95776.73
2023-03-26T03:00:40.294Z,95782.41
2023-03-26T03:03:41.663Z,95785.96
2023-03-26T03:06:45.494Z,95785.00
2023-03-26T03:09:32.991Z,95786.14
2023-03-26T03:12:43.246Z,95786.04
2023-03-26T03:15:31.494Z,95786.34
2023-03-26T03:18:18.714Z,95785.70
2023-03-26T03:21:06.911Z,95788.05
2023-03-26T03:24:00.242Z,95784.83
2023-03-26T03:26:50.416Z,95778.61
2023-03-26T03:29:46.549Z,95775.91
2023-03-26T03:32:54.194Z,95776.90
2023-03-26T03:35:42.815Z,95778.34
2023-03-26T03:38:30.946Z,95776.55
2023-03-26T03:41:18.858Z,95777.10
2023-03-26T03:44:06.227Z,95782.59
2023-03-26T03:46:55.672Z,95785.32
2023-03-26T03:49:42.993Z,95781.89
2023-03-26T03:52:30.226Z,95786.48
2023-03-26T03:55:17.455Z,95785.73
2023-03-26T03:58:14.799Z,95784.94
2023-03-26T04:01:03.230Z,95789.53
2023-03-26T04:04:02.663Z,95791.40
2023-03-26T04:07:05.559Z,95794.63
2023-03-26T04:10:20.104Z,95791.47
2023-03-26T04:13:26.175Z,95792.77
2023-03-26T04:16:13.353Z,95799.70
2023-03-26T04:19:02.418Z,95803.89
2023-03-26T04:21:49.769Z,95803.96
2023-03-26T04:24:40.375Z,95804.58
2023-03-26T04:27:55.859Z,95797.21
2023-03-26T04:31:06.339Z,95794.99
2023-03-26T04:34:05.853Z,95796.15
2023-03-26T04:36:56.394Z,95803.84
2023-03-26T04:39:47.230Z,95810.85
2023-03-26T04:43:06.619Z,95814.75
2023-03-26T04:46:14.807Z,95813.96
2023-03-26T04:49:09.216Z,95812.07
2023-03-26T04:51:56.526Z,95816.46
2023-03-26T04:55:39.796Z,95821.20
2023-03-26T04:58:33.342Z,95822.05
2023-03-26T05:01:21.582Z,95817.45
2023-03-26T05:04:09.172Z,95825.22
2023-03-26T05:06:58.493Z,95825.83
2023-03-26T05:09:54.206Z,95827.15
2023-03-26T05:12:43.523Z,95830.05
2023-03-26T05:15:35.721Z,95829.09
2023-03-26T05:18:37.770Z,95833.21
2023-03-26T05:21:25.236Z,95838.74
2023-03-26T05:24:12.246Z,95839.41
2023-03-26T05:26:59.447Z,95838.83
2023-03-26T05:30:03.868Z,95840.52
2023-03-26T05:32:54.426Z,95841.35
2023-03-26T05:35:46.525Z,95841.27
2023-03-26T05:38:34.191Z,95840.79
2023-03-26T05:41:21.842Z,95841.22
2023-03-26T05:44:09.189Z,95844.11
2023-03-26T05:46:55.998Z,95846.45
2023-03-26T05:49:44.526Z,95846.88
2023-03-26T05:52:31.264Z,95848.39
2023-03-26T05:55:37.224Z,95847.80
2023-03-26T05:58:43.790Z,95844.13
2023-03-26T06:01:51.033Z,95840.27
2023-03-26T06:04:57.092Z,95839.71
2023-03-26T06:07:46.848Z,95836.85
2023-03-26T06:10:39.128Z,95832.63
2023-03-26T06:13:25.864Z,95831.48
2023-03-26T06:16:26.330Z,95828.17
2023-03-26T06:19:53.256Z,95825.33
2023-03-26T06:22:55.697Z,95825.23
2023-03-26T06:26:01.367Z,95831.30
2023-03-26T06:29:23.499Z,95832.02
2023-03-26T06:32:29.059Z,95833.06
2023-03-26T06:35:27.095Z,95837.73
2023-03-26T06:38:13.782Z,95840.84
2023-03-26T06:41:05.707Z,95844.40
2023-03-26T06:44:11.435Z,95848.10
2023-03-26T06:47:16.987Z,95851.80
2023-03-26T06:50:24.195Z,95855.16
2023-03-26T06:53:30.044Z,95856.59
2023-03-26T06:56:28.841Z,95857.84
2023-03-26T06:59:23.626Z,95861.67
2023-03-26T07:02:29.212Z,95861.28
2023-03-26T07:05:35.014Z,95858.71
2023-03-26T07:08:41.063Z,95863.41
2023-03-26T07:11:46.869Z,95860.27
2023-03-26T07:14:52.912Z,95861.91
2023-03-26T07:17:58.948Z,95861.83
2023-03-26T07:20:52.246Z,95863.21
2023-03-26T07:23:41.287Z,95868.10
2023-03-26T07:27:00.865Z,95875.85
2023-03-26T07:30:14.292Z,95878.96
2023-03-26T07:33:37.898Z,95880.17
2023-03-26T07:37:08.131Z,95884.19
2023-03-26T07:41:03.564Z,95885.80
2023-03-26T07:43:52.969Z,95887.22
2023-03-26T07:47:26.330Z,95889.92
2023-03-26T07:50:35.973Z,95890.18
2023-03-26T07:53:31.067Z,95891.88
2023-03-26T07:56:49.182Z,95893.39
2023-03-26T08:00:12.196Z,95886.02
2023-03-26T08:03:17.496Z,95881.86
2023-03-26T08:06:36.232Z,95882.63
2023-03-26T08:10:17.524Z,95874.92
2023-03-26T08:13:35.102Z,95873.16
2023-03-26T08:16:51.488Z,95875.05
2023-03-26T08:19:47.432Z,95875.85
2023-03-26T08:22:41.168Z,95873.67
2023-03-26T08:25:48.934Z,95871.06
2023-03-26T08:28:48.797Z,95870.55
2023-03-26T08:31:41.578Z,95866.14
2023-03-26T08:34:28.789Z,95857.68
2023-03-26T08:37:15.707Z,95849.73
2023-03-26T08:40:02.932Z,95854.73
2023-03-26T08:43:19.333Z,95851.52
2023-03-26T08:46:33.906Z,95847.59
2023-03-26T08:49:51.806Z,95848.37
2023-03-26T08:53:00.554Z,95848.88
2023-03-26T08:56:01.710Z,95846.94
2023-03-26T08:59:28.062Z,95847.02
2023-03-26T09:02:23.884Z,95846.09
2023-03-26T09:05:46.143Z,95849.73
2023-03-26T09:09:06.816Z,95850.95
2023-03-26T09:12:25.750Z,95851.06
2023-03-26T09:15:34.053Z,95855.92
2023-03-26T09:18:49.060Z,95858.59
2023-03-26T09:21:48.374Z,95851.15
2023-03-26T09:24:43.899Z,95848.34
2023-03-26T09:27:34.184Z,95855.16
2023-03-26T09:30:29.768Z,95854.28
2023-03-26T09:33:25.638Z,95846.31
2023-03-26T09:36:38.752Z,95856.48
2023-03-26T09:39:53.314Z,95859.80
2023-03-26T09:43:08.278Z,95863.39
2023-03-26T09:46:13.479Z,95862.23
2023-03-26T09:49:09.555Z,95864.42
2023-03-26T09:52:18.073Z,95867.23
2023-03-26T09:55:42.291Z,95871.23
2023-03-26T09:58:47.818Z,95859.51
2023-03-26T10:02:00.951Z,95858.29
2023-03-26T13:39:33.426Z,95731.99
2023-03-26T13:42:48.504Z,95729.90
2023-03-26T13:45:46.450Z,95722.73
2023-03-26T13:48:43.275Z,95721.27
2023-03-26T13:51:50.671Z,95718.89
2023-03-26T13:54:59.890Z,95711.38
2023-03-26T13:57:57.146Z,95702.94
2023-03-26T14:00:58.030Z,95701.92
2023-03-26T14:04:00.779Z,95699.58
2023-03-26T14:06:57.781Z,95693.27
2023-03-26T14:09:51.902Z,95692.44
2023-03-26T14:12:51.922Z,95694.08
2023-03-26T14:16:00.665Z,95692.02
2023-03-26T14:18:58.529Z,95685.57
2023-03-26T14:22:04.276Z,95680.23
2023-03-26T14:25:18.940Z,95677.73
2023-03-26T14:28:32.829Z,95674.54
2023-03-26T14:31:53.807Z,95671.36
2023-03-26T14:34:59.256Z,95669.01
2023-03-26T14:38:33.789Z,95669.52
2023-03-26T14:41:45.990Z,95669.47
2023-03-26T14:45:00.363Z,95671.06
2023-03-26T14:48:15.623Z,95670.59
2023-03-26T14:51:42.486Z,95669.41
2023-03-26T14:54:34.508Z,95671.62
2023-03-26T14:58:05.960Z,95668.86
2023-03-26T15:01:17.816Z,95666.55
2023-03-26T15:04:18.820Z,95662.29
2023-03-26T15:07:18.967Z,95662.02
2023-03-26T15:10:22.848Z,95668.09
2023-03-26T15:13:47.042Z,95670.89
2023-03-26T15:16:37.057Z,95666.38
2023-03-26T15:19:36.854Z,95667.08
2023-03-26T15:23:01.012Z,95669.34
2023-03-26T15:26:08.003Z,95672.71
2023-03-26T15:29:13.548Z,95668.93
2023-03-26T15:32:41.570Z,95664.67
2023-03-26T15:35:38.193Z,95662.31
2023-03-26T15:38:30.812Z,95656.82
2023-03-26T15:41:59.410Z,95653.71
2023-03-26T15:45:31.309Z,95650.86
2023-03-26T15:48:50.888Z,95646.03
2023-03-26T15:51:47.015Z,95644.38
2023-03-26T15:55:27.802Z,95645.69
2023-03-26T15:58:50.183Z,95653.29
2023-03-26T16:02:16.450Z,95654.58
2023-03-26T16:05:19.580Z,95650.29
2023-03-26T16:08:38.751Z,95645.63
2023-03-26T16:11:44.554Z,95646.91
2023-03-26T16:14:34.544Z,95645.93
2023-03-26T16:17:23.867Z,95646.01
2023-03-26T16:20:34.509Z,95649.16
2023-03-26T16:23:27.360Z,95645.91
2023-03-26T16:26:22.346Z,95643.88
2023-03-26T16:29:18.272Z,95641.45
2023-03-26T16:32:07.965Z,95638.46
2023-03-26T16:34:58.339Z,95643.23
2023-03-26T16:37:50.724Z,95644.33
2023-03-26T16:40:59.740Z,95649.89
2023-03-26T16:43:55.757Z,95648.77
2023-03-26T16:47:16.254Z,95654.23
2023-03-26T16:50:29.977Z,95659.02
2023-03-26T16:53:42.917Z,95664.02
2023-03-26T16:57:02.068Z,95666.02
2023-03-26T17:00:06.232Z,95669.70
2023-03-26T17:03:25.872Z,95675.38
2023-03-26T17:06:23.969Z,95678.95
2023-03-26T17:09:34.108Z,95680.77
2023-03-26T17:12:48.775Z,95683.25
2023-03-26T17:15:45.204Z,95694.63
2023-03-26T17:18:47.403Z,95697.11
2023-03-26T17:21:55.976Z,95702.07
2023-03-26T17:25:05.027Z,95708.44
2023-03-26T17:29:02.511Z,95714.65
2023-03-26T17:32:08.824Z,95719.09
2023-03-26T17:35:02.276Z,95713.70
2023-03-26T17:37:49.966Z,95712.70
2023-03-26T17:40:51.218Z,95707.69
2023-03-26T17:43:51.922Z,95703.33
2023-03-26T17:46:42.885Z,95702.48
2023-03-26T17:49:33.436Z,95696.09
2023-03-26T17:52:41.897Z,95686.89
2023-03-26T17:55:36.998Z,95678.95
2023-03-26T17:58:47.998Z,95681.38
2023-03-26T18:01:38.805Z,95681.77
2023-03-26T18:04:37.769Z,95684.23
2023-03-26T18:07:41.889Z,95678.61
2023-03-26T18:10:39.151Z,95675.84
2023-03-26T18:13:50.184Z,95672.57
2023-03-26T18:16:41.316Z,95670.84
2023-03-26T18:19:29.062Z,95667.41
2023-03-26T18:22:20.744Z,95660.95
2023-03-26T18:25:25.332Z,95657.63
2023-03-26T18:28:14.484Z,95657.24
2023-03-26T18:31:31.524Z,95652.88
2023-03-26T18:34:19.581Z,95655.14
2023-03-26T18:37:18.944Z,95655.02
2023-03-26T18:40:11.844Z,95653.12
2023-03-26T18:43:00.940Z,95652.42
2023-03-26T18:45:50.675Z,95655.88
2023-03-26T18:48:37.664Z,95656.77
2023-03-26T18:51:26.617Z,95656.20
2023-03-26T18:54:18.916Z,95653.57
2023-03-26T18:57:15.862Z,95650.78
2023-03-26T19:00:23.470Z,95646.45
2023-03-26T19:03:12.403Z,95644.30
2023-03-26T19:06:00.002Z,95644.44
2023-03-26T19:08:48.265Z,95640.23
2023-03-26T19:11:38.333Z,95634.61
2023-03-26T19:14:27.149Z,95631.94
2023-03-26T19:17:14.108Z,95629.68
2023-03-26T19:20:01.978Z,95626.02
2023-03-26T19:22:50.700Z,95624.23
2023-03-26T19:25:42.298Z,95623.33
2023-03-26T19:28:36.013Z,95620.33
2023-03-26T19:31:32.173Z,95611.09
2023-03-26T19:34:39.819Z,95607.40
2023-03-26T19:37:32.578Z,95607.42
2023-03-26T19:40:22.762Z,95604.62
2023-03-26T19:43:14.393Z,95603.55
2023-03-26T19:46:02.036Z,95599.52
2023-03-26T19:48:52.761Z,95593.89
2023-03-26T19:51:41.171Z,95587.09
2023-03-26T19:54:30.437Z,95583.26
2023-03-26T19:57:18.013Z,95585.84
2023-03-26T20:00:13.577Z,95583.42
2023-03-26T20:03:00.846Z,95581.65
2023-03-26T20:05:48.139Z,95580.78
2023-03-26T20:08:35.045Z,95576.92
2023-03-26T20:11:33.659Z,95574.96
2023-03-26T20:14:26.430Z,95568.87
2023-03-26T20:17:18.326Z,95564.81
2023-03-26T20:20:06.879Z,95562.05
2023-03-26T20:22:54.297Z,95560.94
2023-03-26T20:25:46.434Z,95559.19
2023-03-26T20:28:42.351Z,95557.91
2023-03-26T20:31:35.106Z,95556.63
2023-03-26T20:34:24.482Z,95556.05
2023-03-26T20:37:11.690Z,95553.93
2023-03-26T20:39:58.711Z,95546.95
2023-03-26T20:42:46.333Z,95543.98
2023-03-26T20:45:33.146Z,95539.27
2023-03-26T20:48:19.976Z,95534.54
2023-03-26T20:51:10.457Z,95527.89
2023-03-26T20:53:57.335Z,95527.33
2023-03-26T20:56:45.893Z,95526.81
2023-03-26T20:59:32.998Z,95526.77
2023-03-26T21:02:20.476Z,95527.08
2023-03-26T21:05:14.611Z,95519.42
2023-03-26T21:08:02.183Z,95517.36
2023-03-26T21:10:50.120Z,95511.65
2023-03-26T21:13:43.678Z,95508.48
2023-03-26T21:16:31.658Z,95508.15
2023-03-26T21:19:19.671Z,95503.97
2023-03-26T21:22:25.890Z,95500.98
2023-03-26T21:25:44.551Z,95500.60
2023-03-26T21:28:51.878Z,95492.26
2023-03-26T21:31:39.366Z,95489.80
2023-03-26T21:34:27.551Z,95483.48
2023-03-26T21:37:19.063Z,95482.64
2023-03-26T21:40:17.149Z,95480.48
2023-03-26T21:43:04.783Z,95479.64
2023-03-26T21:45:54.880Z,95477.48
2023-03-26T21:48:43.632Z,95476.80
2023-03-26T21:51:30.461Z,95476.94
2023-03-26T21:54:29.523Z,95473.95
2023-03-26T21:58:04.500Z,95474.29
2023-03-26T22:01:11.888Z,95471.04
2023-03-26T22:04:28.675Z,95455.92
2023-03-26T22:07:23.388Z,95445.76
2023-03-26T22:10:10.296Z,95440.02
2023-03-26T22:12:58.027Z,95431.79
2023-03-26T22:15:46.291Z,95423.20
2023-03-26T22:18:33.598Z,95415.67
2023-03-26T22:21:20.713Z,95411.14
2023-03-26T22:24:08.752Z,95408.98
2023-03-26T22:26:56.322Z,95408.83
2023-03-26T22:29:43.267Z,95399.52
2023-03-26T22:32:32.803Z,95391.48
2023-03-26T22:35:20.569Z,95391.14
2023-03-26T22:38:07.821Z,95387.26
2023-03-26T22:40:57.109Z,95387.77
2023-03-26T22:43:46.230Z,95387.92
2023-03-26T22:46:33.625Z,95387.40
2023-03-26T22:49:21.112Z,95383.55
2023-03-26T22:52:07.915Z,95386.64
2023-03-26T22:54:55.041Z,95383.48
2023-03-26T22:57:42.998Z,95377.20
2023-03-26T23:00:30.807Z,95367.43
2023-03-26T23:03:22.128Z,95367.60
2023-03-26T23:06:23.081Z,95362.57
2023-03-26T23:09:10.831Z,95360.41
2023-03-26T23:11:58.676Z,95351.84
2023-03-26T23:14:45.456Z,95343.40
2023-03-26T23:17:35.572Z,95337.46
2023-03-26T23:20:22.659Z,95335.66
2023-03-26T23:23:09.677Z,95336.35
2023-03-26T23:26:02.297Z,95338.07
2023-03-26T23:28:51.219Z,95336.46
2023-03-26T23:31:38.675Z,95332.06
2023-03-26T23:34:26.547Z,95329.69
2023-03-26T23:37:14.281Z,95327.08
2023-03-26T23:40:01.416Z,95323.04
2023-03-26T23:42:49.754Z,95319.51
2023-03-26T23:45:37.568Z,95316.67
2023-03-26T23:48:25.720Z,95315.58
2023-03-26T23:51:12.544Z,95315.93
2023-03-26T23:54:00.722Z,95315.36
2023-03-26T23:56:49.316Z,95316.76
2023-03-26T23:59:36.132Z,95315.13
